Tamanrasset Airport
DAAT : now visible

Airfield :











YOU CAN JOIN US ON...

 
LOGIN :

Register | Disclaimer

   EN    FR    IT 

 









Legend :    VFR   Marginal VFR   IFR   Intensive IFR   Very Intensive IFR
Visi :
Ceiling :
>= 8 km
>= 3000ft
5 to 8 km
1000 to 3000 ft
1500m to 5 km
500 to 1000 ft
800 to 1500m
200 to 500 ft
< 800m
< 200 ft
Symbols :   Thunderstorms  Fog  Heavy snow  Heavy precipitations  Wind > 20 kt







- Airport Elevation : 4518 ft
- IATA code : TMR


DAAT - Tamanrasset

CURRENT METAR :
  • 172200Z 05002KT CAVOK 30/M00 Q1018

EXPIRED METARs :
  • 172130Z 05004KT 020V090 CAVOK 30/M00 Q1018
  • 172100Z 02005KT CAVOK 31/00 Q1018
  • 172030Z 33006KT CAVOK 32/01 Q1018
  • 172000Z 32007KT CAVOK 33/00 Q1018
  • 171930Z 33008KT CAVOK 34/01 Q1018

TAF TAF DAAT
Valid from the 17 at 18:00 until the 18 at 18:00 UTC


171700Z 1718/1818 34010KT 8000 FEW046 SCT100
TEMPO 1718/1722 34015G25KT FEW040CB SCT040TCU
BECMG 1719/1721 02008KT
BECMG 1723/1802 08014KT
PROB40 1802/1806 06015G25KT 5000 DRSA
No reported NOTAMs for that airfield.
1 SIGMET reported for the Alger FIR (DAAA) :
 
Embedded thunderstorms
DAAA SIGMET 2 VALID 172000/172400 DAMM
DAAA ALGER FIR EMBD TS OBS WI N3605 E00424 - N3417 E00456 - N3232 W00048 - N3433 W00042 - N3605 E00424 TOP FL340 MOV NE WKN=



MET'MAP, your aeronautical weather chart ! - Copyright ORBIFLY December 2007 - Disclaimer

ORBIFLY MET'MAP TEAM :

Programming & Development : Alexandra Zaïnal
Concept & Development : Baudouin d'Aumeries
Co-Development & Prog : Marc-Olivier Méhu
Technical & hardware support : Manuel Goepfert

Contact : metmap@orbifly.com




SOURCES & CREDITS :

   NOAA       Earth
Advisory